Time;durP1;ratioP1;P1;durP2;ratioP2;P2;SDS_P1;SDS_P2;PMS_P1;PMS_P2;Temp;Humidity;BMP_temperature;BMP_pressure;BME280_temperature;BME280_humidity;BME280_pressure;Samples;Min_cycle;Max_cycle;Signal;HPM_P1;HPM_P2
2024/04/02 00:01:25;;;;;;;;;;;;;;;20.16;50.55;97031.61;68050;1275;1016357;-67
2024/04/02 00:04:27;;;;;;;;;;;;;;;20.10;51.27;97037.14;68060;1275;1016618;-67
2024/04/02 00:07:30;;;;;;;;;;;;;;;20.00;51.35;97056.27;68051;1275;1016490;-65
2024/04/02 00:10:32;;;;;;;;;;;;;;;19.93;51.96;97058.68;68015;1275;1016676;-66
2024/04/02 00:13:35;;;;;;;;;;;;;;;19.99;51.74;97059.13;68026;1275;1016201;-67
2024/04/02 00:16:37;;;;;;;;;;;;;;;19.87;51.98;97050.30;68063;1275;1016406;-67
2024/04/02 00:19:39;;;;;;;;;;;;;;;19.89;51.60;97054.16;68082;1275;1016544;-61
2024/04/02 00:22:42;;;;;;;;;;;;;;;19.98;51.45;97054.04;68078;1275;1016460;-67
2024/04/02 00:25:44;;;;;;;;;;;;;;;19.81;51.89;97047.71;68013;1275;1016264;-67
2024/04/02 00:28:47;;;;;;;;;;;;;;;19.80;51.93;97046.04;68031;1275;1016331;-67
2024/04/02 00:31:49;;;;;;;;;;;;;;;19.93;51.48;97042.80;68006;1275;1016122;-64
2024/04/02 00:34:51;;;;;;;;;;;;;;;19.77;51.93;97046.73;67980;1275;1016418;-60
2024/04/02 00:37:55;;;;;;;;;;;;;;;19.81;52.21;97058.52;67898;1275;1016342;-67
2024/04/02 00:40:57;;;;;;;;;;;;;;;19.59;52.83;97066.41;68013;1275;1016497;-61
2024/04/02 00:44:00;;;;;;;;;;;;;;;19.58;52.30;97059.65;68030;1275;1016262;-63
2024/04/02 00:47:03;;;;;;;;;;;;;;;19.51;52.75;97058.75;68025;1275;1016382;-66
2024/04/02 00:50:05;;;;;;;;;;;;;;;19.52;53.05;97065.42;68019;1275;1016402;-60
2024/04/02 00:53:07;;;;;;;;;;;;;;;19.80;51.70;97064.89;68065;1275;1016391;-66
2024/04/02 00:56:10;;;;;;;;;;;;;;;19.61;52.61;97073.83;68046;1275;1016337;-61
2024/04/02 00:59:12;;;;;;;;;;;;;;;19.47;53.10;97074.50;68078;1275;1016441;-67
2024/04/02 01:02:15;;;;;;;;;;;;;;;19.48;53.07;97078.23;68039;1275;1016507;-62
2024/04/02 01:05:17;;;;;;;;;;;;;;;19.34;53.57;97074.91;68022;1275;1016292;-67
2024/04/02 01:08:19;;;;;;;;;;;;;;;19.24;54.02;97074.00;67998;1275;1016317;-64
2024/04/02 01:11:21;;;;;;;;;;;;;;;19.17;54.25;97076.77;68000;1275;1016017;-66
2024/04/02 01:14:24;;;;;;;;;;;;;;;19.34;53.52;97075.88;68082;1275;1016929;-61
2024/04/02 01:17:26;;;;;;;;;;;;;;;19.19;53.89;97084.50;68008;1275;1015754;-66
2024/04/02 01:20:28;;;;;;;;;;;;;;;19.01;54.63;97084.82;68037;1275;1016395;-66
2024/04/02 01:23:31;;;;;;;;;;;;;;;18.91;55.09;97083.83;68045;1275;1016853;-66
2024/04/02 01:26:33;;;;;;;;;;;;;;;18.88;55.12;97083.58;67991;1275;1016195;-60
2024/04/02 01:29:35;;;;;;;;;;;;;;;19.08;54.60;97083.95;68005;1275;1016407;-61
2024/04/02 01:32:38;;;;;;;;;;;;;;;19.01;54.73;97093.09;68041;1275;1016418;-62
2024/04/02 01:35:40;;;;;;;;;;;;;;;18.86;55.02;97091.54;68053;1275;1016359;-66
2024/04/02 01:38:43;;;;;;;;;;;;;;;18.92;55.03;97080.06;67899;1275;1019220;-65
2024/04/02 01:41:45;;;;;;;;;;;;;;;19.02;54.45;97077.42;67862;1275;1016423;-66
2024/04/02 01:44:47;;;;;;;;;;;;;;;18.85;55.15;97093.66;67997;1275;1016291;-66
2024/04/02 01:47:50;;;;;;;;;;;;;;;18.98;54.65;97087.08;68010;1275;1016404;-61
2024/04/02 01:50:52;;;;;;;;;;;;;;;19.05;54.33;97082.73;67990;1275;1015920;-60
2024/04/02 01:53:54;;;;;;;;;;;;;;;18.93;55.03;97077.39;67963;1275;1016295;-67
2024/04/02 01:56:57;;;;;;;;;;;;;;;18.89;55.34;97080.61;67913;1275;1016569;-67
2024/04/02 01:59:59;;;;;;;;;;;;;;;18.69;55.99;97071.45;68052;1275;1016397;-66
2024/04/02 02:03:02;;;;;;;;;;;;;;;18.61;56.08;97074.61;68072;1275;1016345;-64
2024/04/02 02:06:05;;;;;;;;;;;;;;;18.46;56.17;97059.39;68050;1275;1016476;-66
2024/04/02 02:09:07;;;;;;;;;;;;;;;18.53;55.61;97067.55;68077;1275;1016042;-66
2024/04/02 02:12:10;;;;;;;;;;;;;;;18.31;56.10;97069.58;67922;1275;1015967;-61
2024/04/02 02:15:12;;;;;;;;;;;;;;;18.35;55.64;97071.09;68022;1275;1018221;-63
2024/04/02 02:18:14;;;;;;;;;;;;;;;18.34;55.53;97063.20;68013;1275;1016369;-62
2024/04/02 02:21:17;;;;;;;;;;;;;;;18.44;55.08;97063.69;68030;1275;1016550;-62
2024/04/02 02:24:19;;;;;;;;;;;;;;;18.34;55.38;97065.08;67976;1275;1016298;-64
2024/04/02 02:27:21;;;;;;;;;;;;;;;18.31;55.72;97066.67;68066;1275;1016311;-65
2024/04/02 02:30:24;;;;;;;;;;;;;;;18.11;56.67;97074.02;67928;1275;1016450;-67
2024/04/02 02:33:26;;;;;;;;;;;;;;;18.05;56.54;97085.92;68010;1275;1018584;-67
2024/04/02 02:36:28;;;;;;;;;;;;;;;17.72;57.32;97076.84;67952;1275;1016441;-67
2024/04/02 02:39:31;;;;;;;;;;;;;;;17.64;57.18;97077.58;67980;1275;1016356;-64
2024/04/02 02:42:33;;;;;;;;;;;;;;;17.50;57.01;97102.98;67994;1275;1016230;-62
2024/04/02 02:45:35;;;;;;;;;;;;;;;17.45;56.50;97105.45;67949;1275;1016757;-67
2024/04/02 02:48:38;;;;;;;;;;;;;;;17.44;56.19;97118.00;67929;1275;1016416;-66
2024/04/02 02:51:40;;;;;;;;;;;;;;;17.38;56.32;97125.52;68076;1275;1019511;-67
2024/04/02 02:54:42;;;;;;;;;;;;;;;17.10;57.10;97140.60;68043;1275;1015852;-66
2024/04/02 02:57:45;;;;;;;;;;;;;;;17.04;57.41;97146.00;67982;1275;1016610;-67
2024/04/02 03:00:47;;;;;;;;;;;;;;;16.95;57.90;97147.09;68005;1275;1018045;-67
2024/04/02 03:03:51;;;;;;;;;;;;;;;17.01;57.73;97151.48;68038;1275;1016477;-67
2024/04/02 03:06:53;;;;;;;;;;;;;;;17.11;57.55;97159.91;68039;1275;1016438;-67
2024/04/02 03:09:56;;;;;;;;;;;;;;;16.95;58.54;97154.67;68091;1275;1016694;-67
2024/04/02 03:12:58;;;;;;;;;;;;;;;17.11;58.21;97149.44;68068;1275;1016257;-61
2024/04/02 03:16:01;;;;;;;;;;;;;;;17.05;59.21;97132.14;67990;1275;1016424;-61
2024/04/02 03:19:04;;;;;;;;;;;;;;;16.74;61.58;97128.59;68035;1275;1016484;-60
2024/04/02 03:22:06;;;;;;;;;;;;;;;16.64;62.36;97121.35;67943;1275;1016414;-67
2024/04/02 03:25:09;;;;;;;;;;;;;;;16.57;63.57;97131.35;68004;1275;1016852;-67
2024/04/02 03:28:11;;;;;;;;;;;;;;;16.56;63.82;97148.75;68001;1275;1016397;-66
2024/04/02 03:31:13;;;;;;;;;;;;;;;16.53;64.87;97144.38;68006;1275;1016371;-67
2024/04/02 03:34:17;;;;;;;;;;;;;;;16.41;66.75;97152.18;67922;1275;1016466;-60
2024/04/02 03:37:19;;;;;;;;;;;;;;;16.65;65.42;97157.81;68019;1275;1016415;-67
2024/04/02 03:40:22;;;;;;;;;;;;;;;16.59;65.88;97163.73;68061;1275;1016356;-66
2024/04/02 03:43:24;;;;;;;;;;;;;;;16.52;66.88;97171.07;68002;1275;1016129;-64
2024/04/02 03:46:26;;;;;;;;;;;;;;;16.68;66.16;97175.10;67973;1275;1016489;-67
2024/04/02 03:49:29;;;;;;;;;;;;;;;16.66;66.42;97180.30;67947;1275;1016655;-67
2024/04/02 03:52:32;;;;;;;;;;;;;;;16.56;66.82;97191.98;68032;1275;1016411;-67
2024/04/02 03:55:35;;;;;;;;;;;;;;;16.45;67.69;97184.86;67997;1275;1016467;-67
2024/04/02 03:58:37;;;;;;;;;;;;;;;16.33;68.78;97184.66;67995;1275;1016212;-66
2024/04/02 04:01:39;;;;;;;;;;;;;;;15.93;71.93;97189.67;68065;1275;1017021;-67
2024/04/02 04:04:42;;;;;;;;;;;;;;;15.68;74.29;97182.80;68043;1275;1016515;-61
2024/04/02 04:07:44;;;;;;;;;;;;;;;15.68;75.59;97180.15;68046;1275;1016580;-67
2024/04/02 04:10:46;;;;;;;;;;;;;;;15.62;76.16;97172.71;68044;1275;1016950;-67
2024/04/02 04:13:48;;;;;;;;;;;;;;;15.84;73.75;97172.88;68022;1275;1016347;-68
2024/04/02 04:16:51;;;;;;;;;;;;;;;15.75;73.44;97166.05;68009;1275;1015748;-64
2024/04/02 04:19:53;;;;;;;;;;;;;;;15.73;72.80;97152.00;67994;1275;1016289;-63
2024/04/02 04:22:55;;;;;;;;;;;;;;;15.83;71.32;97131.02;68033;1275;1016233;-67
2024/04/02 04:25:57;;;;;;;;;;;;;;;16.00;70.41;97128.13;68059;1275;1016411;-61
2024/04/02 04:29:00;;;;;;;;;;;;;;;15.98;70.33;97136.64;68061;1275;1016327;-67
2024/04/02 04:32:03;;;;;;;;;;;;;;;16.11;69.74;97141.93;68034;1275;1016885;-60
2024/04/02 04:35:06;;;;;;;;;;;;;;;16.27;67.78;97135.58;68035;1275;1016264;-65
2024/04/02 04:38:09;;;;;;;;;;;;;;;16.08;68.37;97135.71;68009;1275;1016284;-67
2024/04/02 04:41:11;;;;;;;;;;;;;;;16.21;68.14;97141.02;67951;1275;1018402;-64
2024/04/02 04:44:14;;;;;;;;;;;;;;;16.20;68.61;97144.59;68043;1275;1016463;-67
2024/04/02 04:47:16;;;;;;;;;;;;;;;16.27;67.96;97143.18;68030;1275;1016548;-60
2024/04/02 04:50:19;;;;;;;;;;;;;;;16.19;68.38;97144.42;68060;1275;1018083;-66
2024/04/02 04:53:21;;;;;;;;;;;;;;;16.33;68.47;97151.61;68017;1275;1016486;-64
2024/04/02 04:56:23;;;;;;;;;;;;;;;16.49;66.98;97142.16;68005;1275;1016334;-67
2024/04/02 04:59:25;;;;;;;;;;;;;;;16.59;66.06;97126.68;68032;1275;1016262;-67
2024/04/02 05:02:28;;;;;;;;;;;;;;;16.59;66.33;97125.81;68053;1275;1016270;-66
2024/04/02 05:05:30;;;;;;;;;;;;;;;16.51;66.92;97137.16;68063;1275;1016513;-66
2024/04/02 05:08:33;;;;;;;;;;;;;;;16.45;67.07;97142.61;68064;1275;1016445;-60
2024/04/02 05:11:36;;;;;;;;;;;;;;;16.58;66.32;97137.59;68032;1275;1018729;-67
2024/04/02 05:14:38;;;;;;;;;;;;;;;16.61;66.15;97143.00;68054;1275;1016124;-67
2024/04/02 05:17:41;;;;;;;;;;;;;;;16.60;66.29;97153.37;68047;1275;1016480;-67
2024/04/02 05:20:44;;;;;;;;;;;;;;;16.64;66.13;97160.08;68027;1275;1016687;-67
2024/04/02 05:23:46;;;;;;;;;;;;;;;16.54;66.90;97168.38;68086;1275;1016652;-67
2024/04/02 05:26:48;;;;;;;;;;;;;;;16.48;67.25;97173.13;68014;1275;1017755;-67
2024/04/02 05:29:51;;;;;;;;;;;;;;;16.45;68.14;97181.02;68034;1275;1016205;-62
2024/04/02 05:32:53;;;;;;;;;;;;;;;16.49;68.14;97186.63;68041;1275;1016185;-60
2024/04/02 05:35:56;;;;;;;;;;;;;;;16.38;68.49;97188.39;68012;1275;1016241;-66
2024/04/02 05:38:58;;;;;;;;;;;;;;;16.42;68.61;97188.04;68022;1275;1016386;-67
2024/04/02 05:42:00;;;;;;;;;;;;;;;16.52;67.99;97188.54;68058;1275;1016467;-67
2024/04/02 05:45:03;;;;;;;;;;;;;;;16.57;68.16;97186.77;68032;1275;1016176;-61
2024/04/02 05:48:05;;;;;;;;;;;;;;;16.44;68.61;97187.66;68044;1275;1018558;-63
2024/04/02 05:51:07;;;;;;;;;;;;;;;16.46;68.77;97188.69;68012;1275;1016114;-67
2024/04/02 05:54:10;;;;;;;;;;;;;;;16.49;68.04;97184.80;68000;1275;1016436;-66
2024/04/02 05:57:15;;;;;;;;;;;;;;;16.25;69.93;97174.44;68007;1275;1016392;-63
2024/04/02 06:00:17;;;;;;;;;;;;;;;16.61;67.85;97168.45;68041;1275;1016158;-67
2024/04/02 06:03:20;;;;;;;;;;;;;;;16.79;66.51;97165.58;65916;1275;5394629;-66
2024/04/02 06:06:23;;;;;;;;;;;;;;;16.68;67.37;97163.08;68048;1275;1016487;-66
2024/04/02 06:09:25;;;;;;;;;;;;;;;16.77;66.81;97160.46;68053;1275;1016286;-66
2024/04/02 06:12:27;;;;;;;;;;;;;;;16.75;66.65;97162.52;68021;1275;1018392;-66
2024/04/02 06:15:30;;;;;;;;;;;;;;;16.58;67.14;97176.73;68003;1275;1016338;-66
2024/04/02 06:18:33;;;;;;;;;;;;;;;16.54;67.96;97173.70;67987;1275;1016436;-66
2024/04/02 06:21:35;;;;;;;;;;;;;;;16.49;67.11;97174.21;68008;1275;1016666;-66
2024/04/02 06:24:37;;;;;;;;;;;;;;;16.51;67.15;97171.73;68040;1275;1016550;-65
2024/04/02 06:27:40;;;;;;;;;;;;;;;16.42;67.47;97170.45;67929;1275;1016040;-66
2024/04/02 06:30:43;;;;;;;;;;;;;;;16.36;67.95;97166.98;68011;1275;1016465;-66
2024/04/02 06:33:46;;;;;;;;;;;;;;;16.35;67.90;97164.84;68009;1275;1016584;-67
2024/04/02 06:36:48;;;;;;;;;;;;;;;16.09;69.13;97175.98;67983;1275;1016480;-66
2024/04/02 06:39:50;;;;;;;;;;;;;;;16.16;68.57;97177.17;68013;1275;1016361;-66
2024/04/02 06:42:53;;;;;;;;;;;;;;;16.40;67.60;97175.58;68063;1275;1016050;-67
2024/04/02 06:45:55;;;;;;;;;;;;;;;16.58;66.35;97178.15;68027;1275;1016623;-63
2024/04/02 06:48:58;;;;;;;;;;;;;;;16.28;68.11;97174.39;68034;1275;1016461;-66
2024/04/02 06:52:01;;;;;;;;;;;;;;;15.84;69.75;97187.63;67999;1275;1016322;-66
2024/04/02 06:55:03;;;;;;;;;;;;;;;15.36;73.91;97189.25;68036;1275;1018651;-65
2024/04/02 06:58:05;;;;;;;;;;;;;;;15.38;74.41;97191.54;68028;1275;1016484;-65
2024/04/02 07:01:08;;;;;;;;;;;;;;;15.40;73.46;97195.73;68008;1275;1016442;-67
2024/04/02 07:04:10;;;;;;;;;;;;;;;15.40;73.54;97208.94;67997;1275;1016388;-67
2024/04/02 07:07:13;;;;;;;;;;;;;;;15.23;73.80;97223.24;67999;1275;1016379;-66
2024/04/02 07:10:15;;;;;;;;;;;;;;;15.33;73.35;97219.98;67977;1275;1016368;-66
2024/04/02 07:13:18;;;;;;;;;;;;;;;15.27;73.32;97232.98;68035;1275;1016170;-66
2024/04/02 07:16:20;;;;;;;;;;;;;;;15.34;73.13;97239.80;68048;1275;1016252;-66
2024/04/02 07:19:23;;;;;;;;;;;;;;;15.49;71.78;97242.64;68000;1275;1016077;-67
2024/04/02 07:22:25;;;;;;;;;;;;;;;15.44;71.52;97242.63;67986;1275;1016381;-66
2024/04/02 07:25:27;;;;;;;;;;;;;;;15.26;72.94;97242.06;68047;1275;1016478;-66
2024/04/02 07:28:30;;;;;;;;;;;;;;;15.11;73.58;97242.45;68046;1275;1016894;-67
2024/04/02 07:31:32;;;;;;;;;;;;;;;15.12;73.50;97254.25;68029;1275;1016184;-67
2024/04/02 07:34:37;;;;;;;;;;;;;;;15.07;74.74;97252.55;68016;1275;1016289;-66
2024/04/02 07:37:39;;;;;;;;;;;;;;;15.18;73.19;97258.19;68044;1275;1016265;-67
2024/04/02 07:40:42;;;;;;;;;;;;;;;15.11;73.14;97264.19;68062;1275;1016460;-65
2024/04/02 07:43:44;;;;;;;;;;;;;;;15.05;73.09;97274.89;68061;1275;1016451;-66
2024/04/02 07:46:48;;;;;;;;;;;;;;;14.99;72.80;97285.16;68007;1275;1016378;-67
2024/04/02 07:49:51;;;;;;;;;;;;;;;14.42;74.89;97303.05;67978;1275;1016088;-66
2024/04/02 07:52:53;;;;;;;;;;;;;;;14.35;76.26;97299.37;68003;1275;1016319;-66
2024/04/02 07:55:57;;;;;;;;;;;;;;;14.40;76.34;97313.81;68012;1275;1016542;-66
2024/04/02 07:59:00;;;;;;;;;;;;;;;14.41;75.97;97316.07;68002;1275;1015948;-66
2024/04/02 08:02:02;;;;;;;;;;;;;;;14.33;75.70;97326.02;68082;1275;1016271;-67
2024/04/02 08:05:05;;;;;;;;;;;;;;;14.65;73.73;97325.00;68068;1275;1018402;-66
2024/04/02 08:08:08;;;;;;;;;;;;;;;14.50;73.80;97331.33;68062;1275;1016516;-68
2024/04/02 08:11:11;;;;;;;;;;;;;;;14.23;76.68;97333.64;68036;1275;1017990;-67
2024/04/02 08:14:14;;;;;;;;;;;;;;;14.27;74.80;97339.55;68029;1275;1016578;-67
2024/04/02 08:17:16;;;;;;;;;;;;;;;14.33;75.48;97341.43;68059;1275;1016449;-66
2024/04/02 08:20:19;;;;;;;;;;;;;;;14.30;75.84;97346.98;68054;1275;1016435;-65
2024/04/02 08:23:21;;;;;;;;;;;;;;;14.51;74.38;97343.48;68034;1275;1016641;-66
2024/04/02 08:26:24;;;;;;;;;;;;;;;14.38;74.75;97356.45;67999;1275;1016401;-66
2024/04/02 08:29:26;;;;;;;;;;;;;;;14.40;75.22;97357.49;68046;1275;1016267;-66
2024/04/02 08:32:28;;;;;;;;;;;;;;;14.51;74.49;97360.02;68060;1275;1016065;-67
2024/04/02 08:35:31;;;;;;;;;;;;;;;14.37;75.01;97360.77;68038;1275;1016394;-66
2024/04/02 08:38:33;;;;;;;;;;;;;;;14.25;75.42;97371.23;68013;1275;1016091;-67
2024/04/02 08:41:35;;;;;;;;;;;;;;;14.35;75.31;97386.27;68053;1275;1015723;-67
2024/04/02 08:44:38;;;;;;;;;;;;;;;14.27;75.78;97388.84;68022;1275;1016513;-66
2024/04/02 08:47:40;;;;;;;;;;;;;;;14.29;76.46;97390.54;68024;1275;1016540;-66
2024/04/02 08:50:42;;;;;;;;;;;;;;;14.47;76.04;97401.96;68057;1275;1016476;-67
2024/04/02 08:53:44;;;;;;;;;;;;;;;14.73;73.64;97411.94;68066;1275;1018170;-65
2024/04/02 08:56:47;;;;;;;;;;;;;;;14.70;73.23;97410.20;68056;1275;1016345;-66
2024/04/02 08:59:49;;;;;;;;;;;;;;;14.93;71.95;97408.13;68004;1275;1016384;-67
2024/04/02 09:02:53;;;;;;;;;;;;;;;14.86;72.56;97416.40;68013;1275;1016346;-66
2024/04/02 09:05:55;;;;;;;;;;;;;;;14.88;72.23;97427.48;68035;1275;1016379;-66
2024/04/02 09:08:58;;;;;;;;;;;;;;;14.86;72.32;97428.77;67990;1275;1016385;-66
2024/04/02 09:12:00;;;;;;;;;;;;;;;14.78;72.76;97446.44;67956;1275;1016021;-65
2024/04/02 09:15:02;;;;;;;;;;;;;;;14.66;73.89;97450.55;68026;1275;1016740;-67
2024/04/02 09:18:05;;;;;;;;;;;;;;;14.76;73.76;97462.42;67995;1275;1016337;-66
2024/04/02 09:21:07;;;;;;;;;;;;;;;14.97;72.67;97460.41;68023;1275;1016291;-66
2024/04/02 09:24:10;;;;;;;;;;;;;;;14.81;73.14;97463.16;68038;1275;1016471;-65
2024/04/02 09:27:14;;;;;;;;;;;;;;;14.83;73.70;97461.18;68044;1275;1016439;-66
2024/04/02 09:30:17;;;;;;;;;;;;;;;14.92;72.67;97459.83;67988;1275;1016117;-66
2024/04/02 09:33:19;;;;;;;;;;;;;;;14.77;72.22;97468.65;68034;1275;1016496;-67
2024/04/02 09:36:21;;;;;;;;;;;;;;;14.77;73.90;97467.66;68042;1275;1015848;-67
2024/04/02 09:39:25;;;;;;;;;;;;;;;14.91;73.90;97464.77;68065;1275;1018695;-66
2024/04/02 09:42:28;;;;;;;;;;;;;;;14.96;72.30;97475.89;68057;1275;1016794;-66
2024/04/02 09:45:30;;;;;;;;;;;;;;;14.87;73.27;97468.87;67986;1275;1016403;-64
2024/04/02 09:48:33;;;;;;;;;;;;;;;15.09;71.81;97467.92;68019;1275;1016052;-66
2024/04/02 09:51:36;;;;;;;;;;;;;;;15.20;70.46;97467.23;68044;1275;1018081;-66
2024/04/02 09:54:38;;;;;;;;;;;;;;;15.18;70.34;97469.13;68010;1275;1016516;-66
2024/04/02 09:57:41;;;;;;;;;;;;;;;15.23;69.87;97467.42;68029;1275;1015795;-66
2024/04/02 10:00:46;;;;;;;;;;;;;;;15.20;70.11;97462.77;68057;1275;1016392;-65
2024/04/02 10:03:48;;;;;;;;;;;;;;;15.35;69.39;97463.63;67998;1275;1016433;-65
2024/04/02 10:06:51;;;;;;;;;;;;;;;15.26;70.56;97467.29;68023;1275;1016439;-66
2024/04/02 10:09:54;;;;;;;;;;;;;;;15.29;72.12;97466.07;68020;1275;1020002;-66
2024/04/02 10:12:56;;;;;;;;;;;;;;;15.46;70.70;97478.64;67983;1275;1016213;-65
2024/04/02 10:15:59;;;;;;;;;;;;;;;15.35;70.32;97491.58;67983;1275;1016473;-66
2024/04/02 10:19:01;;;;;;;;;;;;;;;15.31;70.07;97499.19;68027;1274;1016308;-65
2024/04/02 10:22:03;;;;;;;;;;;;;;;15.24;70.54;97502.58;68030;1275;1016349;-67
2024/04/02 10:25:06;;;;;;;;;;;;;;;15.32;70.52;97500.33;68025;1275;1019144;-65
2024/04/02 10:28:09;;;;;;;;;;;;;;;15.28;70.46;97505.29;68007;1275;1015902;-65
2024/04/02 10:31:11;;;;;;;;;;;;;;;15.44;69.71;97489.98;68035;1275;1016254;-66
2024/04/02 10:34:14;;;;;;;;;;;;;;;15.36;70.30;97493.38;68030;1275;1016336;-65
2024/04/02 10:37:16;;;;;;;;;;;;;;;15.42;70.71;97484.53;68044;1275;1016429;-65
2024/04/02 10:40:18;;;;;;;;;;;;;;;15.65;70.40;97484.12;68034;1275;1016504;-66
2024/04/02 10:43:21;;;;;;;;;;;;;;;15.80;69.33;97480.65;67975;1275;1016647;-66
2024/04/02 10:46:23;;;;;;;;;;;;;;;15.83;68.35;97492.30;67994;1275;1016475;-65
2024/04/02 10:49:26;;;;;;;;;;;;;;;16.12;66.49;97496.90;68045;1275;1016404;-66
2024/04/02 10:52:28;;;;;;;;;;;;;;;16.23;66.42;97507.05;68056;1275;1019222;-66
2024/04/02 10:55:31;;;;;;;;;;;;;;;15.95;66.72;97517.73;68002;1275;1017984;-62
2024/04/02 10:58:34;;;;;;;;;;;;;;;15.90;67.14;97530.16;68025;1275;1016625;-66
2024/04/02 11:01:37;;;;;;;;;;;;;;;16.13;66.77;97535.03;67995;1275;1016219;-66
2024/04/02 11:04:39;;;;;;;;;;;;;;;16.32;65.06;97539.11;68030;1275;1016002;-66
2024/04/02 11:07:42;;;;;;;;;;;;;;;16.23;65.62;97541.92;68016;1275;1016235;-66
2024/04/02 11:10:44;;;;;;;;;;;;;;;16.34;65.32;97528.23;67986;1275;1016269;-66
2024/04/02 11:13:47;;;;;;;;;;;;;;;16.56;65.43;97525.11;67993;1275;1016434;-65
2024/04/02 11:16:50;;;;;;;;;;;;;;;16.76;65.06;97524.56;67998;1275;1015985;-65
2024/04/02 11:19:54;;;;;;;;;;;;;;;16.86;63.53;97531.30;68025;1275;1015922;-66
2024/04/02 11:26:16;;;;;;;;;;;;;;;16.67;63.42;97539.61;68021;1275;1017767;-66
2024/04/02 11:29:19;;;;;;;;;;;;;;;16.75;64.38;97540.55;67967;1275;1016395;-64
2024/04/02 11:32:21;;;;;;;;;;;;;;;16.98;62.53;97537.31;67967;1275;1016337;-65
2024/04/02 11:35:24;;;;;;;;;;;;;;;16.88;62.75;97530.92;68012;1275;1015971;-66
2024/04/02 11:38:29;;;;;;;;;;;;;;;16.88;62.47;97532.42;67956;1275;1016401;-66
2024/04/02 11:41:32;;;;;;;;;;;;;;;17.25;61.59;97537.04;67981;1275;1016372;-66
2024/04/02 11:44:36;;;;;;;;;;;;;;;17.29;60.42;97544.71;67983;1275;1016052;-65
2024/04/02 11:47:40;;;;;;;;;;;;;;;17.20;60.69;97555.15;68004;1275;1016210;-66
2024/04/02 11:50:43;;;;;;;;;;;;;;;17.18;61.96;97556.14;68030;1275;1016395;-66
2024/04/02 11:53:45;;;;;;;;;;;;;;;16.96;62.92;97554.21;67991;1275;1017651;-66
2024/04/02 12:00:14;;;;;;;;;;;;;;;17.03;62.24;97549.27;67879;1275;1016232;-65
2024/04/02 12:03:17;;;;;;;;;;;;;;;17.11;61.32;97541.48;67968;1275;1016431;-66
2024/04/02 12:06:21;;;;;;;;;;;;;;;17.14;60.79;97549.47;67983;1275;1015895;-66
2024/04/02 12:09:24;;;;;;;;;;;;;;;17.12;60.21;97546.20;68027;1275;1016166;-65
2024/04/02 12:12:26;;;;;;;;;;;;;;;17.11;60.04;97544.30;68059;1275;1016498;-65
2024/04/02 12:15:29;;;;;;;;;;;;;;;17.25;58.37;97547.73;68045;1275;1016471;-65
2024/04/02 12:18:31;;;;;;;;;;;;;;;17.02;59.00;97553.80;67972;1275;1016277;-65
2024/04/02 12:21:33;;;;;;;;;;;;;;;16.86;59.76;97556.85;68007;1275;1015691;-66
2024/04/02 12:24:36;;;;;;;;;;;;;;;16.91;59.64;97556.56;68042;1275;1016090;-65
2024/04/02 12:27:38;;;;;;;;;;;;;;;17.08;57.77;97570.09;68037;1275;1016081;-66
2024/04/02 12:30:40;;;;;;;;;;;;;;;17.03;57.33;97567.27;68012;1275;1016145;-65
2024/04/02 12:33:42;;;;;;;;;;;;;;;17.24;56.58;97554.80;68034;1275;1016097;-66
2024/04/02 12:36:45;;;;;;;;;;;;;;;17.24;56.04;97564.26;67999;1275;1018698;-65
2024/04/02 12:39:47;;;;;;;;;;;;;;;17.10;55.07;97572.70;67981;1275;1016172;-65
2024/04/02 12:42:50;;;;;;;;;;;;;;;17.39;54.74;97576.83;67997;1275;1016622;-65
2024/04/02 12:45:52;;;;;;;;;;;;;;;17.41;55.11;97579.78;68050;1275;1016475;-66
2024/04/02 12:48:54;;;;;;;;;;;;;;;17.45;54.47;97582.64;67997;1275;1016533;-65
2024/04/02 12:51:57;;;;;;;;;;;;;;;17.43;54.28;97592.46;67996;1275;1019560;-66
2024/04/02 12:54:59;;;;;;;;;;;;;;;17.16;54.56;97587.23;67964;1275;1016055;-66
2024/04/02 12:58:01;;;;;;;;;;;;;;;17.35;54.08;97585.15;67954;1275;1016469;-65
2024/04/02 13:01:04;;;;;;;;;;;;;;;17.28;53.94;97589.79;68046;1275;1016362;-66
2024/04/02 13:04:06;;;;;;;;;;;;;;;17.45;53.11;97586.96;68027;1275;1015934;-65
2024/04/02 13:07:09;;;;;;;;;;;;;;;17.64;53.41;97578.85;68024;1275;1016441;-66
2024/04/02 13:10:11;;;;;;;;;;;;;;;17.60;53.34;97588.64;67991;1275;1016164;-66
2024/04/02 13:13:14;;;;;;;;;;;;;;;17.57;52.92;97586.20;68039;1275;1016396;-65
2024/04/02 13:16:17;;;;;;;;;;;;;;;17.62;53.16;97596.05;68004;1275;1016317;-66
2024/04/02 13:19:19;;;;;;;;;;;;;;;17.61;53.83;97591.78;67993;1275;1016479;-64
2024/04/02 13:22:22;;;;;;;;;;;;;;;17.32;53.79;97601.35;67983;1275;1016431;-66
2024/04/02 13:25:24;;;;;;;;;;;;;;;17.11;54.93;97608.43;68025;1275;1016700;-65
2024/04/02 13:28:27;;;;;;;;;;;;;;;17.05;55.52;97608.50;68043;1275;1016549;-65
2024/04/02 13:31:29;;;;;;;;;;;;;;;17.08;54.93;97595.36;67989;1275;1016337;-65
2024/04/02 13:34:31;;;;;;;;;;;;;;;17.23;54.69;97604.46;67985;1275;1016472;-66
2024/04/02 13:37:34;;;;;;;;;;;;;;;17.22;54.59;97601.45;68033;1275;1016401;-65
2024/04/02 13:40:36;;;;;;;;;;;;;;;17.14;54.42;97601.33;68055;1275;1016348;-65
2024/04/02 13:43:39;;;;;;;;;;;;;;;17.26;54.37;97595.82;68033;1275;1017292;-64
2024/04/02 13:46:41;;;;;;;;;;;;;;;17.34;54.39;97587.04;67981;1275;1016970;-65
2024/04/02 13:49:43;;;;;;;;;;;;;;;17.52;54.10;97587.42;67975;1275;1016214;-65
2024/04/02 13:52:46;;;;;;;;;;;;;;;17.47;54.00;97592.16;67989;1275;1016301;-65
2024/04/02 13:55:48;;;;;;;;;;;;;;;17.53;54.48;97583.60;67968;1275;1016404;-65
2024/04/02 13:58:51;;;;;;;;;;;;;;;17.54;54.08;97584.04;67997;1275;1016390;-63
2024/04/02 14:01:53;;;;;;;;;;;;;;;17.58;53.22;97586.98;68007;1275;1016479;-65
2024/04/02 14:04:55;;;;;;;;;;;;;;;17.45;53.54;97589.61;67956;1275;1016500;-65
2024/04/02 14:07:59;;;;;;;;;;;;;;;17.57;53.75;97584.38;68030;1275;1016016;-65
2024/04/02 14:11:01;;;;;;;;;;;;;;;17.65;52.44;97588.79;68034;1275;1018919;-65
2024/04/02 14:14:04;;;;;;;;;;;;;;;17.67;53.20;97585.05;67959;1275;1016695;-65
2024/04/02 14:17:06;;;;;;;;;;;;;;;17.93;52.56;97581.71;67963;1275;1016040;-65
2024/04/02 14:20:09;;;;;;;;;;;;;;;17.89;51.64;97583.87;67956;1275;1016083;-65
2024/04/02 14:23:12;;;;;;;;;;;;;;;18.04;51.89;97578.93;67968;1275;1016409;-64
2024/04/02 14:26:15;;;;;;;;;;;;;;;18.10;51.59;97581.63;68010;1275;1016465;-65
2024/04/02 14:29:17;;;;;;;;;;;;;;;18.15;50.65;97584.40;68056;1275;1016477;-65
2024/04/02 14:32:19;;;;;;;;;;;;;;;18.08;50.99;97590.86;68024;1275;1016122;-65
2024/04/02 14:35:21;;;;;;;;;;;;;;;18.19;50.62;97592.23;68009;1275;1018042;-65
2024/04/02 14:38:24;;;;;;;;;;;;;;;18.09;50.88;97597.48;67991;1275;1016506;-64
2024/04/02 14:41:26;;;;;;;;;;;;;;;17.96;51.00;97608.43;67954;1275;1016236;-65
2024/04/02 14:44:29;;;;;;;;;;;;;;;17.91;51.56;97626.33;67969;1275;1016436;-65
2024/04/02 14:47:32;;;;;;;;;;;;;;;17.79;52.66;97620.85;67968;1275;1016076;-65
2024/04/02 14:50:34;;;;;;;;;;;;;;;17.51;51.70;97629.94;67963;1275;1016314;-66
2024/04/02 14:53:37;;;;;;;;;;;;;;;17.29;51.79;97634.60;67947;1275;1016187;-66
2024/04/02 14:57:00;;;;;;;;;;;;;;;17.20;50.39;97624.67;68005;1275;1016176;-66
2024/04/02 15:00:02;;;;;;;;;;;;;;;17.06;49.95;97610.05;67999;1275;1015957;-66
2024/04/02 15:03:05;;;;;;;;;;;;;;;16.98;49.57;97610.11;68019;1275;1016404;-65
2024/04/02 15:06:07;;;;;;;;;;;;;;;16.84;49.76;97615.66;68036;1275;1016647;-65
2024/04/02 15:09:11;;;;;;;;;;;;;;;16.89;49.98;97611.48;68027;1275;1019158;-65
2024/04/02 15:12:13;;;;;;;;;;;;;;;16.98;49.37;97608.41;68017;1275;1016896;-65
2024/04/02 15:15:16;;;;;;;;;;;;;;;16.85;48.68;97616.99;68042;1275;1016242;-65
2024/04/02 15:18:18;;;;;;;;;;;;;;;16.86;49.47;97616.16;68029;1275;1016301;-65
2024/04/02 15:21:20;;;;;;;;;;;;;;;16.98;49.46;97614.19;67998;1275;1016225;-65
2024/04/02 15:24:25;;;;;;;;;;;;;;;17.02;49.55;97612.38;68043;1275;1016152;-65
2024/04/02 15:27:28;;;;;;;;;;;;;;;17.16;49.38;97620.27;68033;1275;1018116;-65
2024/04/02 15:30:30;;;;;;;;;;;;;;;17.25;49.10;97618.43;68020;1275;1016447;-66
2024/04/02 15:33:33;;;;;;;;;;;;;;;17.29;49.62;97624.23;67975;1275;1016453;-65